Time;durP1;ratioP1;P1;durP2;ratioP2;P2;SDS_P1;SDS_P2;PMS_P1;PMS_P2;Temp;Humidity;BMP_temperature;BMP_pressure;BME280_temperature;BME280_humidity;BME280_pressure;Samples;Min_cycle;Max_cycle;Signal;HPM_P1;HPM_P2
2023/06/09 00:00:37;;;;;;;21.30;11.02;;;538.10;2406.40;;;;;;4899855;29;20060;-71
2023/06/09 00:03:05;;;;;;;19.88;11.45;;;538.10;2406.40;;;;;;4899592;29;20033;-71
2023/06/09 00:05:34;;;;;;;23.65;12.57;;;538.00;2406.40;;;;;;4899934;29;20080;-71
2023/06/09 00:08:01;;;;;;;16.75;11.43;;;538.00;2406.40;;;;;;4899249;29;20024;-71
2023/06/09 00:13:56;;;;;;;19.83;11.98;;;537.90;2406.40;;;;;;4985157;24;1236071;-72
2023/06/09 00:16:25;;;;;;;24.42;13.15;;;537.80;2406.40;;;;;;4889251;29;20025;-71
2023/06/09 00:18:54;;;;;;;20.13;10.63;;;538.00;2406.40;;;;;;4893675;29;20040;-71
2023/06/09 00:21:19;;;;;;;21.75;10.57;;;537.80;2406.40;;;;;;4888508;29;20021;-71
2023/06/09 00:23:46;;;;;;;20.02;9.82;;;537.90;2406.40;;;;;;4892140;29;20033;-72
2023/06/09 00:26:12;;;;;;;18.30;10.68;;;537.90;2406.40;;;;;;4895029;29;20021;-72
2023/06/09 00:28:39;;;;;;;21.10;11.13;;;538.00;2406.40;;;;;;4868575;29;20025;-71
2023/06/09 00:31:04;;;;;;;14.27;10.15;;;538.00;2406.40;;;;;;4877038;29;20049;-71
2023/06/09 00:33:31;;;;;;;18.50;11.18;;;538.00;2406.40;;;;;;4890674;29;20024;-72
2023/06/09 00:35:56;;;;;;;19.98;11.77;;;537.90;2406.40;;;;;;4887135;29;20021;-71
2023/06/09 00:38:22;;;;;;;15.07;10.77;;;538.00;2406.40;;;;;;4887403;29;20659;-71
2023/06/09 00:40:50;;;;;;;20.63;10.68;;;538.00;2406.40;;;;;;4884595;29;20093;-72
2023/06/09 00:43:16;;;;;;;16.48;11.52;;;537.90;2406.40;;;;;;4894054;29;20031;-75
2023/06/09 00:45:41;;;;;;;14.32;10.32;;;537.70;2406.40;;;;;;4890079;29;20028;-71
2023/06/09 00:48:08;;;;;;;15.73;11.32;;;537.90;2406.40;;;;;;4888788;29;20100;-71
2023/06/09 00:50:34;;;;;;;18.02;10.45;;;537.90;2406.40;;;;;;4885834;29;20127;-71
2023/06/09 00:53:01;;;;;;;15.40;10.80;;;537.90;2406.40;;;;;;4882095;29;20027;-72
2023/06/09 00:55:28;;;;;;;15.23;9.35;;;537.90;2406.40;;;;;;4890266;29;20036;-72
2023/06/09 00:57:58;;;;;;;14.88;9.82;;;537.80;2406.40;;;;;;4885919;29;20025;-71
2023/06/09 01:00:26;;;;;;;16.00;9.90;;;537.80;2406.40;;;;;;4883229;29;20033;-71
2023/06/09 01:03:02;;;;;;;16.40;9.70;;;537.80;2304.00;;;;;;4887516;29;20539;-71
2023/06/09 01:05:34;;;;;;;16.05;9.57;;;537.70;2406.40;;;;;;4882529;29;20038;-71
2023/06/09 01:08:25;;;;;;;14.02;9.50;;;537.60;2278.40;;;;;;4888401;29;20022;-71
2023/06/09 01:11:00;;;;;;;15.48;9.60;;;537.60;2406.40;;;;;;4889336;29;20036;-72
2023/06/09 01:13:47;;;;;;;14.43;9.43;;;537.60;2406.40;;;;;;4882218;29;20025;-72
2023/06/09 01:16:22;;;;;;;18.38;9.98;;;537.60;2406.40;;;;;;4884154;29;20076;-71
2023/06/09 01:18:49;;;;;;;14.65;9.80;;;537.60;2227.20;;;;;;4888921;29;20033;-71
2023/06/09 01:21:42;;;;;;;14.40;9.13;;;537.60;2406.40;;;;;;4883369;29;20017;-71
2023/06/09 01:24:47;;;;;;;16.60;10.18;;;537.60;2406.40;;;;;;4889818;29;20036;-72
2023/06/09 01:27:16;;;;;;;15.65;10.02;;;537.60;2406.40;;;;;;4885207;29;20122;-72
2023/06/09 01:29:44;;;;;;;14.02;9.13;;;537.70;2406.40;;;;;;4863214;29;20068;-72
2023/06/09 01:32:11;;;;;;;12.70;8.70;;;512.90;2380.80;;;;;;4885309;29;20036;-71
2023/06/09 01:34:37;;;;;;;16.30;9.63;;;537.60;2406.40;;;;;;4883691;29;20154;-71
2023/06/09 01:37:03;;;;;;;15.25;8.95;;;537.70;2150.40;;;;;;4887224;29;20483;-72
2023/06/09 01:39:29;;;;;;;17.38;9.55;;;537.60;2406.40;;;;;;4869247;29;20043;-71
2023/06/09 01:41:55;;;;;;;18.75;10.00;;;537.60;2022.40;;;;;;4886936;29;20055;-72
2023/06/09 01:44:20;;;;;;;13.63;9.68;;;512.90;2176.00;;;;;;4885464;29;20028;-71
2023/06/09 01:46:46;;;;;;;13.55;9.20;;;512.90;2278.40;;;;;;4896937;29;20039;-72
2023/06/09 01:49:22;;;;;;;17.55;9.32;;;512.90;2176.00;;;;;;4898308;29;20036;-72
2023/06/09 01:52:15;;;;;;;14.25;10.07;;;512.80;2176.00;;;;;;4892023;29;20036;-71
2023/06/09 01:54:48;;;;;;;12.43;9.63;;;512.70;2380.80;;;;;;4897963;29;20020;-73
2023/06/09 01:57:30;;;;;;;13.02;10.07;;;512.70;2380.80;;;;;;4881555;29;20029;-74
2023/06/09 02:00:00;;;;;;;17.00;10.65;;;512.70;2380.80;;;;;;4878821;29;20024;-71
2023/06/09 02:02:30;;;;;;;18.25;11.35;;;512.60;2380.80;;;;;;4880301;29;20031;-72
2023/06/09 02:04:58;;;;;;;12.50;9.45;;;512.80;2380.80;;;;;;4878975;29;20099;-73
2023/06/09 02:07:24;;;;;;;17.05;10.07;;;512.90;2380.80;;;;;;4878505;29;20471;-71
2023/06/09 02:09:50;;;;;;;16.10;9.90;;;537.60;2150.40;;;;;;4878570;29;20037;-73
2023/06/09 02:12:16;;;;;;;16.23;10.20;;;537.70;2406.40;;;;;;4881159;29;20543;-72
2023/06/09 02:14:42;;;;;;;16.88;9.90;;;512.90;2380.80;;;;;;4878185;29;20049;-72
2023/06/09 02:17:12;;;;;;;20.27;9.98;;;512.80;2124.80;;;;;;4878668;29;20092;-74
2023/06/09 02:19:38;;;;;;;14.77;9.13;;;512.70;2380.80;;;;;;4878482;29;20040;-72
2023/06/09 02:22:07;;;;;;;13.40;9.82;;;512.60;2022.40;;;;;;4882512;29;20360;-72
2023/06/09 02:24:34;;;;;;;16.45;10.10;;;512.70;2304.00;;;;;;4881006;29;20029;-72
2023/06/09 02:27:01;;;;;;;17.10;10.82;;;512.60;2329.60;;;;;;4878501;29;20045;-72
2023/06/09 02:29:27;;;;;;;17.42;9.43;;;512.50;2380.80;;;;;;4880986;29;20108;-72
2023/06/09 02:31:59;;;;;;;12.27;9.27;;;512.60;2380.80;;;;;;4878552;29;20115;-73
2023/06/09 02:34:26;;;;;;;14.70;10.85;;;512.50;2380.80;;;;;;4878768;29;20029;-72
2023/06/09 02:36:54;;;;;;;14.65;9.30;;;512.70;2380.80;;;;;;4878367;29;20085;-73
2023/06/09 02:39:22;;;;;;;14.13;9.65;;;512.70;2380.80;;;;;;4862077;29;20085;-73
2023/06/09 02:41:48;;;;;;;15.35;9.48;;;512.90;2380.80;;;;;;4880005;29;20044;-72
2023/06/09 02:44:14;;;;;;;19.15;9.10;;;512.80;2380.80;;;;;;4885513;29;20024;-72
2023/06/09 02:46:40;;;;;;;15.30;9.30;;;512.70;2380.80;;;;;;4888828;29;20025;-72
2023/06/09 02:49:06;;;;;;;13.00;8.88;;;512.60;2380.80;;;;;;4878296;29;20021;-75
2023/06/09 02:51:32;;;;;;;13.40;8.77;;;512.70;2176.00;;;;;;4878409;29;20036;-72
2023/06/09 02:53:58;;;;;;;17.92;9.52;;;512.60;2380.80;;;;;;4881385;29;20503;-72
2023/06/09 02:56:24;;;;;;;13.75;9.68;;;512.60;2380.80;;;;;;4866005;29;20396;-72
2023/06/09 02:58:50;;;;;;;16.02;10.07;;;512.60;2380.80;;;;;;4867375;29;20124;-72
2023/06/09 03:01:19;;;;;;;12.85;9.35;;;512.60;2380.80;;;;;;4865672;29;20033;-72
2023/06/09 03:03:46;;;;;;;14.52;9.50;;;512.70;2380.80;;;;;;4864324;29;20036;-73
2023/06/09 03:06:13;;;;;;;13.30;10.10;;;512.70;2278.40;;;;;;4881200;29;20052;-73
2023/06/09 03:08:42;;;;;;;15.95;10.32;;;512.50;2380.80;;;;;;4880822;29;20475;-72
2023/06/09 03:11:09;;;;;;;15.93;10.77;;;512.60;2355.20;;;;;;4880906;29;20033;-72
2023/06/09 03:13:34;;;;;;;21.67;10.75;;;512.50;2380.80;;;;;;4883455;29;20017;-72
2023/06/09 03:16:02;;;;;;;12.75;9.38;;;512.60;2380.80;;;;;;4881145;29;20116;-72
2023/06/09 03:18:27;;;;;;;20.73;11.02;;;512.70;2278.40;;;;;;4883012;29;20025;-72
2023/06/09 03:20:55;;;;;;;13.88;9.68;;;512.80;2380.80;;;;;;4880906;29;20096;-73
2023/06/09 03:23:21;;;;;;;11.30;9.13;;;512.90;2150.40;;;;;;4885436;29;20025;-72
2023/06/09 03:25:51;;;;;;;13.13;9.98;;;512.90;2380.80;;;;;;4880774;29;20380;-72
2023/06/09 03:28:18;;;;;;;16.63;9.95;;;512.90;2150.40;;;;;;4863951;29;20096;-72
2023/06/09 03:30:45;;;;;;;17.50;10.70;;;512.90;2380.80;;;;;;4880371;29;20033;-72
2023/06/09 03:33:11;;;;;;;15.07;9.55;;;512.70;2380.80;;;;;;4883202;29;20020;-72
2023/06/09 03:35:37;;;;;;;14.43;10.68;;;512.90;2380.80;;;;;;4880708;29;20033;-72
2023/06/09 03:38:03;;;;;;;13.98;10.02;;;512.90;2380.80;;;;;;4880045;29;20021;-72
2023/06/09 03:40:28;;;;;;;16.85;9.68;;;512.70;2380.80;;;;;;4881821;29;20035;-72
2023/06/09 03:42:54;;;;;;;17.70;10.50;;;512.70;2380.80;;;;;;4894980;29;20100;-72
2023/06/09 03:45:20;;;;;;;14.55;10.52;;;512.90;2380.80;;;;;;4880284;29;20507;-72
2023/06/09 03:47:46;;;;;;;18.98;10.85;;;512.70;2380.80;;;;;;4882999;29;20033;-73
2023/06/09 03:50:12;;;;;;;14.65;9.82;;;512.70;2380.80;;;;;;4873436;29;20056;-72
2023/06/09 03:52:37;;;;;;;15.60;11.32;;;512.70;2380.80;;;;;;4884017;29;20033;-72
2023/06/09 03:55:03;;;;;;;14.65;9.75;;;512.70;2380.80;;;;;;4880658;29;20384;-72
2023/06/09 03:57:30;;;;;;;16.73;10.70;;;512.70;2380.80;;;;;;4881253;29;20050;-72
2023/06/09 03:59:55;;;;;;;15.20;11.40;;;512.70;2380.80;;;;;;4881423;29;20049;-72
2023/06/09 04:02:21;;;;;;;17.73;11.68;;;512.90;2380.80;;;;;;4881127;29;20017;-72
2023/06/09 04:04:47;;;;;;;16.05;11.07;;;512.90;2380.80;;;;;;4881264;29;20041;-73
2023/06/09 04:07:14;;;;;;;16.40;10.77;;;512.90;2380.80;;;;;;4881278;29;20463;-72
2023/06/09 04:09:40;;;;;;;15.45;11.02;;;512.90;2380.80;;;;;;4863895;29;20124;-72
2023/06/09 04:12:06;;;;;;;14.23;11.63;;;537.60;2406.40;;;;;;4880950;29;20025;-72
2023/06/09 04:14:32;;;;;;;14.85;11.20;;;537.70;2406.40;;;;;;4891938;29;20131;-72
2023/06/09 04:16:57;;;;;;;14.18;11.27;;;537.60;2406.40;;;;;;4865072;29;20040;-72
2023/06/09 04:19:23;;;;;;;19.63;11.73;;;537.70;2406.40;;;;;;4892830;29;20045;-72
2023/06/09 04:21:49;;;;;;;20.08;11.20;;;537.80;2406.40;;;;;;4865402;29;20033;-75
2023/06/09 04:24:15;;;;;;;15.15;10.48;;;537.70;2406.40;;;;;;4892452;29;20028;-76
2023/06/09 04:26:43;;;;;;;15.57;10.63;;;537.80;2406.40;;;;;;4880684;29;20447;-72
2023/06/09 04:29:10;;;;;;;13.68;10.88;;;537.80;2406.40;;;;;;4882348;29;20024;-72
2023/06/09 04:31:38;;;;;;;17.10;10.85;;;537.90;2406.40;;;;;;4885863;29;20037;-71
2023/06/09 04:34:05;;;;;;;17.65;11.38;;;537.90;2406.40;;;;;;4890844;29;20029;-76
2023/06/09 04:36:32;;;;;;;17.77;11.20;;;538.00;2406.40;;;;;;4885659;29;20021;-70
2023/06/09 04:38:59;;;;;;;16.88;11.32;;;538.00;2406.40;;;;;;4869093;29;20476;-72
2023/06/09 04:41:26;;;;;;;14.18;10.38;;;538.00;2406.40;;;;;;4892236;29;20027;-72
2023/06/09 04:43:53;;;;;;;19.15;11.70;;;538.00;2406.40;;;;;;4889000;29;20024;-73
2023/06/09 04:46:24;;;;;;;22.05;10.68;;;538.00;2406.40;;;;;;4890974;29;20028;-71
2023/06/09 04:48:51;;;;;;;18.00;10.57;;;538.00;2406.40;;;;;;4891357;29;20033;-71
2023/06/09 04:51:19;;;;;;;14.93;11.57;;;538.10;2406.40;;;;;;4888559;29;20033;-72
2023/06/09 04:53:47;;;;;;;14.52;10.88;;;538.10;2406.40;;;;;;4889807;29;20419;-71
2023/06/09 04:56:16;;;;;;;17.15;11.05;;;538.10;2406.40;;;;;;4888893;29;20385;-72
2023/06/09 04:58:42;;;;;;;13.82;11.07;;;538.10;2406.40;;;;;;4888051;29;20021;-72
2023/06/09 05:01:08;;;;;;;20.85;11.55;;;538.10;2406.40;;;;;;4886173;29;20045;-72
2023/06/09 05:03:34;;;;;;;18.60;11.57;;;538.10;2406.40;;;;;;4871945;29;20016;-72
2023/06/09 05:05:59;;;;;;;15.73;10.73;;;538.20;2406.40;;;;;;4866545;29;20120;-72
2023/06/09 05:08:25;;;;;;;16.95;10.60;;;538.30;2406.40;;;;;;4883618;29;20049;-71
2023/06/09 05:10:52;;;;;;;19.15;10.75;;;538.40;2406.40;;;;;;4886488;29;20040;-72
2023/06/09 05:13:18;;;;;;;15.15;11.90;;;538.40;2252.80;;;;;;4868070;29;20068;-72
2023/06/09 05:15:45;;;;;;;18.25;11.25;;;538.30;2406.40;;;;;;4888677;29;20061;-72
2023/06/09 05:18:10;;;;;;;13.48;10.57;;;538.50;2406.40;;;;;;4890110;29;20025;-72
2023/06/09 05:20:36;;;;;;;16.27;11.52;;;563.20;2432.00;;;;;;4891476;29;20035;-72
2023/06/09 05:23:02;;;;;;;12.98;10.05;;;563.20;2432.00;;;;;;4884641;29;20077;-71
2023/06/09 05:25:28;;;;;;;13.80;9.57;;;563.20;2432.00;;;;;;4889140;29;20043;-72
2023/06/09 05:27:54;;;;;;;11.65;9.80;;;563.20;2432.00;;;;;;4890548;29;20033;-72
2023/06/09 05:30:19;;;;;;;16.35;10.85;;;563.30;2432.00;;;;;;4886213;29;20040;-72
2023/06/09 05:32:45;;;;;;;11.82;9.45;;;563.30;2432.00;;;;;;4866183;29;20033;-73
2023/06/09 05:35:11;;;;;;;14.63;9.68;;;563.50;2432.00;;;;;;4890249;29;20029;-72
2023/06/09 05:37:48;;;;;;;15.20;10.57;;;563.50;2432.00;;;;;;4880270;29;20090;-74
2023/06/09 05:40:14;;;;;;;17.75;10.27;;;563.60;2432.00;;;;;;4873957;29;20388;-73
2023/06/09 05:42:40;;;;;;;13.48;9.50;;;563.70;2432.00;;;;;;4886123;29;20021;-75
2023/06/09 05:45:06;;;;;;;13.77;9.57;;;563.60;2432.00;;;;;;4888066;29;20080;-72
2023/06/09 05:47:31;;;;;;;15.23;9.30;;;563.60;2432.00;;;;;;4888751;29;20040;-73
2023/06/09 05:49:57;;;;;;;15.98;8.90;;;563.70;2432.00;;;;;;4885446;29;20371;-81
2023/06/09 05:52:24;;;;;;;16.30;9.18;;;563.70;2432.00;;;;;;4875895;29;20035;-74
2023/06/09 05:54:49;;;;;;;15.57;8.60;;;563.60;2432.00;;;;;;4892075;29;20027;-73
2023/06/09 05:57:15;;;;;;;14.25;9.50;;;563.50;2432.00;;;;;;4886102;29;20037;-76
2023/06/09 05:59:42;;;;;;;15.00;10.32;;;563.60;2432.00;;;;;;4891622;29;20063;-73
2023/06/09 06:02:08;;;;;;;14.48;8.65;;;563.60;2432.00;;;;;;4884718;29;20033;-74
2023/06/09 06:04:34;;;;;;;12.48;9.23;;;563.70;2432.00;;;;;;4885853;29;20025;-73
2023/06/09 06:07:00;;;;;;;13.63;9.68;;;563.70;2432.00;;;;;;4889652;29;20033;-72
2023/06/09 06:09:26;;;;;;;12.85;9.23;;;563.70;2432.00;;;;;;4885348;29;20028;-74
2023/06/09 06:11:52;;;;;;;15.43;9.60;;;563.80;2432.00;;;;;;4890150;29;20029;-73
2023/06/09 06:14:17;;;;;;;13.57;8.98;;;563.80;2432.00;;;;;;4887915;29;20108;-73
2023/06/09 06:16:43;;;;;;;16.23;8.90;;;563.90;2432.00;;;;;;4885889;29;20033;-73
2023/06/09 06:19:11;;;;;;;15.82;8.70;;;563.90;2432.00;;;;;;4876810;29;20021;-74
2023/06/09 06:21:40;;;;;;;10.88;8.35;;;563.90;2432.00;;;;;;4887133;29;20511;-73
2023/06/09 06:24:06;;;;;;;17.67;10.10;;;563.80;2432.00;;;;;;4892077;29;20020;-73
2023/06/09 06:26:32;;;;;;;16.92;8.45;;;564.00;2432.00;;;;;;4890471;29;20100;-73
2023/06/09 06:28:57;;;;;;;10.70;7.63;;;564.10;2432.00;;;;;;4884733;29;20037;-74
2023/06/09 06:31:23;;;;;;;14.32;7.93;;;564.10;2432.00;;;;;;4886294;29;20068;-72
2023/06/09 06:33:48;;;;;;;13.90;8.70;;;564.10;2432.00;;;;;;4899901;29;20028;-75
2023/06/09 06:36:14;;;;;;;11.23;8.82;;;564.10;2432.00;;;;;;4888209;29;20040;-72
2023/06/09 06:38:40;;;;;;;10.40;8.27;;;564.10;2432.00;;;;;;4894825;29;20028;-72
2023/06/09 06:41:06;;;;;;;10.63;7.35;;;588.80;2432.00;;;;;;4893896;29;20033;-73
2023/06/09 06:43:31;;;;;;;10.75;7.25;;;588.90;2432.00;;;;;;4891596;29;20025;-74
2023/06/09 06:45:57;;;;;;;9.48;8.30;;;589.10;2432.00;;;;;;4892994;29;20060;-74
2023/06/09 06:48:23;;;;;;;13.63;7.20;;;589.00;2432.00;;;;;;4882661;29;20029;-72
2023/06/09 06:50:49;;;;;;;15.80;8.57;;;588.80;2432.00;;;;;;4891459;29;20079;-73
2023/06/09 06:53:14;;;;;;;11.75;8.98;;;589.10;2432.00;;;;;;4891822;29;20056;-72
2023/06/09 06:55:40;;;;;;;23.80;9.95;;;589.10;2432.00;;;;;;4889838;29;20029;-73
2023/06/09 06:58:06;;;;;;;13.40;10.07;;;589.00;2432.00;;;;;;4890599;29;20033;-74
2023/06/09 07:00:31;;;;;;;17.30;10.52;;;589.30;2432.00;;;;;;4898342;29;20498;-73
2023/06/09 07:02:57;;;;;;;14.80;9.93;;;589.30;2432.00;;;;;;4894281;29;20032;-71
2023/06/09 07:05:23;;;;;;;10.05;8.38;;;589.30;2432.00;;;;;;4894191;29;20033;-72
2023/06/09 07:07:48;;;;;;;13.45;9.85;;;589.40;2432.00;;;;;;4890769;29;20032;-73
2023/06/09 07:10:15;;;;;;;12.07;9.82;;;589.40;2432.00;;;;;;4873790;29;20053;-71
2023/06/09 07:12:41;;;;;;;19.20;10.95;;;589.40;2432.00;;;;;;4891734;29;20072;-72
2023/06/09 07:15:07;;;;;;;14.70;9.30;;;589.60;2432.00;;;;;;4891735;29;20041;-72
2023/06/09 07:17:33;;;;;;;15.40;10.20;;;614.40;2432.00;;;;;;4886008;29;20064;-72
2023/06/09 07:19:59;;;;;;;12.90;10.70;;;614.50;2432.00;;;;;;4892369;29;20037;-74
2023/06/09 07:22:26;;;;;;;11.63;9.63;;;614.50;2432.00;;;;;;4889839;29;20023;-72
2023/06/09 07:24:52;;;;;;;13.75;9.13;;;614.50;2432.00;;;;;;4888173;29;20029;-73
2023/06/09 07:27:17;;;;;;;12.95;9.20;;;614.60;2432.00;;;;;;4890584;29;20032;-72
2023/06/09 07:29:43;;;;;;;14.32;8.90;;;614.70;2432.00;;;;;;4875437;29;20128;-72
2023/06/09 07:32:10;;;;;;;14.35;10.25;;;614.50;2432.00;;;;;;4889289;29;20025;-71
2023/06/09 07:34:37;;;;;;;11.20;8.88;;;614.40;2432.00;;;;;;4889894;29;20073;-70
2023/06/09 07:37:04;;;;;;;11.43;10.10;;;614.40;2432.00;;;;;;4893054;29;20073;-73
2023/06/09 07:39:30;;;;;;;17.38;10.63;;;614.60;2432.00;;;;;;4886485;29;20425;-72
2023/06/09 07:41:56;;;;;;;12.32;9.57;;;614.50;2432.00;;;;;;4891911;29;20470;-72
2023/06/09 07:44:22;;;;;;;12.60;10.43;;;614.70;2432.00;;;;;;4887725;29;20025;-71
2023/06/09 07:46:49;;;;;;;11.80;9.48;;;614.90;2432.00;;;;;;4891018;29;20035;-72
2023/06/09 07:49:15;;;;;;;13.68;10.23;;;615.10;2432.00;;;;;;4895360;29;20033;-71
2023/06/09 07:51:43;;;;;;;16.40;10.32;;;615.10;2432.00;;;;;;4894020;29;20041;-72
2023/06/09 07:54:09;;;;;;;13.38;10.77;;;615.10;2432.00;;;;;;4871241;29;20025;-71
2023/06/09 07:56:35;;;;;;;13.85;9.93;;;615.10;2432.00;;;;;;4890527;29;20087;-72
2023/06/09 07:59:01;;;;;;;16.13;11.73;;;615.20;2432.00;;;;;;4887091;29;20021;-71
2023/06/09 08:01:26;;;;;;;13.60;11.52;;;615.20;2432.00;;;;;;4890834;29;20498;-72
2023/06/09 08:03:52;;;;;;;17.13;10.23;;;615.30;2432.00;;;;;;4887523;29;20479;-73
2023/06/09 08:06:18;;;;;;;12.48;9.68;;;640.00;2432.00;;;;;;4885142;29;20048;-73
2023/06/09 08:08:44;;;;;;;13.25;9.70;;;640.00;2432.00;;;;;;4891883;29;20490;-73
2023/06/09 08:11:11;;;;;;;12.05;10.00;;;640.00;2432.00;;;;;;4894410;29;20099;-73
2023/06/09 08:13:36;;;;;;;11.43;10.07;;;640.00;2432.00;;;;;;4885479;29;20124;-73
2023/06/09 08:16:02;;;;;;;12.52;9.88;;;640.10;2432.00;;;;;;4889697;29;20509;-72
2023/06/09 08:18:28;;;;;;;18.85;10.85;;;640.00;2432.00;;;;;;4888909;29;20440;-71
2023/06/09 08:20:53;;;;;;;12.95;10.45;;;640.00;2432.00;;;;;;4889358;29;20035;-71
2023/06/09 08:23:20;;;;;;;16.15;12.23;;;615.30;2432.00;;;;;;4889629;29;20104;-71
2023/06/09 08:25:46;;;;;;;15.85;12.95;;;640.00;2432.00;;;;;;4885895;29;20028;-72
2023/06/09 08:28:12;;;;;;;13.02;11.63;;;615.30;2432.00;;;;;;4890497;29;20551;-71
2023/06/09 08:30:38;;;;;;;15.15;13.55;;;640.00;2432.00;;;;;;4890858;29;20488;-71
2023/06/09 08:33:04;;;;;;;14.43;12.93;;;640.00;2432.00;;;;;;4887269;29;20029;-71
2023/06/09 08:35:33;;;;;;;13.63;12.23;;;640.00;2432.00;;;;;;4892490;29;20460;-71
2023/06/09 08:37:59;;;;;;;14.90;11.85;;;640.10;2432.00;;;;;;4890282;29;20025;-71
2023/06/09 08:40:25;;;;;;;14.23;11.88;;;640.00;2432.00;;;;;;4889737;29;20025;-71
2023/06/09 08:42:55;;;;;;;12.52;11.20;;;640.00;2432.00;;;;;;4884588;29;20023;-70
2023/06/09 08:45:22;;;;;;;16.30;11.07;;;640.10;2432.00;;;;;;4884228;29;20017;-71
2023/06/09 08:47:49;;;;;;;13.60;10.98;;;640.10;2432.00;;;;;;4889738;29;20041;-77
2023/06/09 08:50:18;;;;;;;17.27;11.50;;;640.10;2432.00;;;;;;4890324;29;20123;-71
2023/06/09 08:52:44;;;;;;;12.48;10.70;;;640.00;2432.00;;;;;;4888408;29;20035;-72
2023/06/09 08:55:13;;;;;;;16.13;11.95;;;640.10;2432.00;;;;;;4883971;29;20085;-71
2023/06/09 08:57:40;;;;;;;14.43;10.93;;;640.20;2432.00;;;;;;4893052;29;20487;-71
2023/06/09 09:00:11;;;;;;;15.07;10.90;;;640.20;2432.00;;;;;;4887323;29;20039;-72
2023/06/09 09:02:37;;;;;;;14.30;10.07;;;640.40;2432.00;;;;;;4887257;29;20468;-71
2023/06/09 09:05:04;;;;;;;15.35;10.38;;;640.50;2432.00;;;;;;4889484;29;20033;-72
2023/06/09 09:07:30;;;;;;;17.83;12.02;;;640.50;2432.00;;;;;;4894166;29;20063;-71
2023/06/09 09:09:58;;;;;;;15.57;11.65;;;640.50;2432.00;;;;;;4882388;29;20112;-72
2023/06/09 09:12:24;;;;;;;13.02;11.63;;;640.60;2432.00;;;;;;4890826;29;20028;-72
2023/06/09 09:14:50;;;;;;;14.88;11.13;;;640.50;2432.00;;;;;;4894003;29;20410;-72
2023/06/09 09:17:15;;;;;;;16.70;12.15;;;640.70;2432.00;;;;;;4884411;29;20042;-76
2023/06/09 09:19:47;;;;;;;15.80;11.40;;;640.80;2432.00;;;;;;4890045;29;20028;-74
2023/06/09 09:22:13;;;;;;;13.52;11.48;;;665.60;2432.00;;;;;;4890955;29;20029;-72
2023/06/09 09:24:45;;;;;;;16.30;13.05;;;665.90;2432.00;;;;;;4873672;29;20045;-72
2023/06/09 09:27:22;;;;;;;15.77;12.85;;;666.00;2432.00;;;;;;4884660;29;20033;-74
2023/06/09 09:29:48;;;;;;;13.63;12.05;;;666.20;2432.00;;;;;;4889979;29;20177;-71
2023/06/09 09:32:16;;;;;;;14.52;12.90;;;666.20;2432.00;;;;;;4883017;29;20104;-71
2023/06/09 09:34:44;;;;;;;14.65;13.07;;;666.30;2432.00;;;;;;4864905;29;20039;-73
2023/06/09 09:37:20;;;;;;;15.70;14.05;;;666.40;2432.00;;;;;;4889948;29;20475;-75
2023/06/09 09:39:53;;;;;;;19.55;14.38;;;666.40;2432.00;;;;;;4889977;29;20044;-71
2023/06/09 09:42:20;;;;;;;15.70;13.85;;;666.40;2432.00;;;;;;4884960;29;20036;-71
2023/06/09 09:44:47;;;;;;;17.33;13.60;;;691.30;2432.00;;;;;;4884523;29;20044;-72
2023/06/09 09:47:15;;;;;;;18.42;14.35;;;666.50;2432.00;;;;;;4882840;29;20029;-71
2023/06/09 09:49:55;;;;;;;16.05;13.63;;;691.20;2432.00;;;;;;4887442;29;20021;-71
2023/06/09 09:52:27;;;;;;;17.80;14.68;;;691.30;2432.00;;;;;;4890039;29;20021;-71
2023/06/09 09:54:59;;;;;;;17.67;14.95;;;691.30;2432.00;;;;;;4882248;29;20088;-72
2023/06/09 09:57:29;;;;;;;17.30;14.10;;;691.30;2432.00;;;;;;4884135;29;20025;-70
2023/06/09 09:59:56;;;;;;;15.20;13.57;;;;;;;;;;4890862;29;20028;-71
2023/06/09 10:02:26;;;;;;;16.55;14.02;;;691.70;2432.00;;;;;;4886914;29;20025;-71
2023/06/09 10:04:56;;;;;;;16.73;14.93;;;691.80;2432.00;;;;;;4884340;29;20059;-71
2023/06/09 10:07:26;;;;;;;23.25;16.48;;;691.60;2432.00;;;;;;4891910;29;20054;-70
2023/06/09 10:09:52;;;;;;;17.45;14.80;;;;;;;;;;4872225;29;20048;-70
2023/06/09 10:12:19;;;;;;;19.52;16.45;;;692.00;2432.00;;;;;;4890782;29;20080;-73
2023/06/09 10:14:48;;;;;;;17.77;15.60;;;692.00;2432.00;;;;;;4866869;29;20526;-72
2023/06/09 10:17:20;;;;;;;15.48;13.90;;;691.90;2432.00;;;;;;4874957;29;20507;-70
2023/06/09 10:19:50;;;;;;;17.45;14.32;;;716.90;2432.00;;;;;;4888696;29;20104;-70
2023/06/09 10:22:16;;;;;;;21.27;14.85;;;691.90;2432.00;;;;;;4868754;29;20032;-70
2023/06/09 10:24:43;;;;;;;13.98;12.60;;;691.40;2432.00;;;;;;4868808;29;20021;-71
2023/06/09 10:27:09;;;;;;;15.07;13.57;;;691.90;2432.00;;;;;;4890808;29;20036;-70
2023/06/09 10:29:35;;;;;;;20.35;13.40;;;717.00;2432.00;;;;;;4882284;29;20021;-69
2023/06/09 10:32:03;;;;;;;18.02;16.13;;;717.30;2432.00;;;;;;4870930;29;20040;-71
2023/06/09 10:34:32;;;;;;;20.98;15.88;;;717.10;2432.00;;;;;;4883955;29;20154;-71
2023/06/09 10:36:59;;;;;;;16.83;15.13;;;716.80;2432.00;;;;;;4890667;29;20037;-70
2023/06/09 10:39:48;;;;;;;18.30;15.60;;;716.80;2432.00;;;;;;4889797;29;20117;-72
2023/06/09 10:42:45;;;;;;;16.52;14.82;;;691.60;2432.00;;;;;;4882786;29;20439;-69
2023/06/09 10:45:16;;;;;;;21.08;16.10;;;691.80;2432.00;;;;;;4890487;29;20044;-69
2023/06/09 10:47:47;;;;;;;16.30;14.32;;;691.90;2432.00;;;;;;4885669;29;20033;-69
2023/06/09 10:50:26;;;;;;;16.98;15.00;;;691.90;2432.00;;;;;;4883777;29;20037;-74
2023/06/09 10:53:02;;;;;;;15.38;13.02;;;716.80;2432.00;;;;;;4890849;29;20025;-70
2023/06/09 10:55:28;;;;;;;;;;;716.80;2432.00;;;;;;4888547;29;20032;-71
2023/06/09 10:57:55;;;;;;;15.93;13.77;;;691.90;2432.00;;;;;;4884008;29;19914;-72
2023/06/09 11:00:21;;;;;;;15.98;14.38;;;691.90;2432.00;;;;;;4871988;29;20051;-71
2023/06/09 11:02:47;;;;;;;21.45;15.10;;;691.50;2432.00;;;;;;4881919;29;20033;-71
2023/06/09 11:05:14;;;;;;;17.50;14.63;;;691.40;2432.00;;;;;;4882763;29;21672;-74
2023/06/09 11:07:43;;;;;;;16.23;14.55;;;691.40;2432.00;;;;;;4879962;29;20070;-71
2023/06/09 11:10:11;;;;;;;14.85;13.35;;;691.50;2432.00;;;;;;4882288;29;20033;-71
2023/06/09 11:12:36;;;;;;;14.68;13.07;;;691.60;2432.00;;;;;;4886024;29;20380;-71
2023/06/09 11:15:04;;;;;;;15.02;13.43;;;691.80;2432.00;;;;;;4893589;29;20047;-71
2023/06/09 11:17:43;;;;;;;15.98;14.20;;;691.80;2432.00;;;;;;4888318;29;20032;-72
2023/06/09 11:20:08;;;;;;;13.63;12.23;;;691.70;2432.00;;;;;;4887774;29;20032;-73
2023/06/09 11:22:35;;;;;;;14.48;12.13;;;691.60;2432.00;;;;;;4874884;29;20033;-72
2023/06/09 11:25:02;;;;;;;17.63;12.07;;;691.50;2432.00;;;;;;4889150;29;20029;-71
2023/06/09 11:27:27;;;;;;;14.30;12.48;;;691.70;2432.00;;;;;;4902219;29;20458;-71
2023/06/09 11:30:11;;;;;;;13.88;12.00;;;691.80;2432.00;;;;;;4897509;29;20033;-71
2023/06/09 11:33:00;;;;;;;17.38;12.60;;;691.90;2432.00;;;;;;4888377;29;20646;-72
2023/06/09 11:35:32;;;;;;;12.55;11.27;;;692.10;2432.00;;;;;;4888986;29;20077;-71
2023/06/09 11:38:11;;;;;;;14.13;12.23;;;717.10;2432.00;;;;;;4893383;29;20378;-72
2023/06/09 11:40:49;;;;;;;13.25;11.85;;;717.20;2406.40;;;;;;4890229;29;20025;-74
2023/06/09 11:43:16;;;;;;;15.45;11.45;;;717.60;2201.60;;;;;;4886497;29;20044;-71
2023/06/09 11:45:42;;;;;;;14.38;11.40;;;717.50;2406.40;;;;;;4886768;29;20032;-74
2023/06/09 11:48:08;;;;;;;12.13;10.63;;;717.60;2150.40;;;;;;4888842;29;20020;-73
2023/06/09 11:50:45;;;;;;;12.10;10.75;;;742.40;2227.20;;;;;;4887542;29;20454;-74
2023/06/09 11:53:12;;;;;;;13.73;12.32;;;742.50;2073.60;;;;;;4888497;29;20045;-71
2023/06/09 11:55:38;;;;;;;15.13;11.90;;;742.40;2150.40;;;;;;4887550;29;20064;-71
2023/06/09 11:58:08;;;;;;;12.60;11.20;;;742.50;2304.00;;;;;;4884689;29;20060;-71
2023/06/09 12:00:38;;;;;;;13.70;10.50;;;742.70;2099.20;;;;;;4891903;29;20042;-77
2023/06/09 12:03:05;;;;;;;12.77;10.30;;;742.90;1971.20;;;;;;4889582;29;20073;-72
2023/06/09 12:05:31;;;;;;;12.02;10.68;;;;;;;;;;4871837;29;20037;-72
2023/06/09 12:07:57;;;;;;;12.88;10.13;;;743.10;2022.40;;;;;;4888214;29;20025;-73
2023/06/09 12:10:27;;;;;;;13.95;10.63;;;743.30;1996.80;;;;;;4874413;29;20500;-71